Time;durP1;ratioP1;P1;durP2;ratioP2;P2;SDS_P1;SDS_P2;PMS_P1;PMS_P2;Temp;Humidity;BMP_temperature;BMP_pressure;BME280_temperature;BME280_humidity;BME280_pressure;Samples;Min_cycle;Max_cycle;Signal;HPM_P1;HPM_P2
2023/03/27 00:01:36;;;;;;;22.00;9.20;;;;;;;41.47;35.76;101144.88;4827075;29;20941;-82
2023/03/27 00:04:18;;;;;;;22.00;10.43;;;;;;;40.94;36.87;101162.34;4828394;29;20429;-85
2023/03/27 00:06:48;;;;;;;11.57;5.87;;;;;;;40.16;35.04;101154.03;4853212;29;20464;-82
2023/03/27 00:09:18;;;;;;;11.87;5.90;;;;;;;39.90;34.13;101148.44;4824912;29;20460;-85
2023/03/27 00:11:54;;;;;;;16.13;7.37;;;;;;;39.25;35.34;101135.44;4829862;29;20426;-79
2023/03/27 00:14:22;;;;;;;14.90;6.50;;;;;;;38.83;36.49;101140.19;4816974;29;20465;-85
2023/03/27 00:16:51;;;;;;;12.97;6.47;;;;;;;39.09;35.93;101162.91;4828735;29;20440;-82
2023/03/27 00:19:32;;;;;;;12.30;6.43;;;;;;;38.94;36.19;101177.63;4845957;29;20475;-83
2023/03/27 00:22:11;;;;;;;12.50;6.00;;;;;;;37.94;37.27;101156.84;4842363;29;20437;-82
2023/03/27 00:24:40;;;;;;;10.40;5.90;;;;;;;37.23;38.78;101137.19;4828440;29;20434;-81
2023/03/27 00:27:09;;;;;;;12.03;6.63;;;;;;;37.36;38.22;101114.81;4825386;29;20437;-83
2023/03/27 00:29:39;;;;;;;16.13;6.40;;;;;;;37.39;38.25;101119.63;4842017;29;21033;-83
2023/03/27 00:32:14;;;;;;;15.63;6.20;;;;;;;37.54;38.30;101149.13;4853925;29;20564;-80
2023/03/27 00:35:30;;;;;;;12.50;5.80;;;;;;;37.35;38.50;101161.91;4835879;29;20492;-75
2023/03/27 00:37:58;;;;;;;10.87;6.53;;;;;;;37.59;38.29;101150.97;4840727;29;20452;-89
2023/03/27 00:40:24;;;;;;;17.30;6.73;;;;;;;37.43;38.19;101123.34;4827767;29;20483;-89
2023/03/27 00:42:56;;;;;;;11.63;5.67;;;;;;;37.46;38.56;101140.91;4811722;29;20449;-88
2023/03/27 00:45:31;;;;;;;12.60;7.20;;;;;;;37.87;37.74;101151.81;4812617;29;20495;-87
2023/03/27 00:48:07;;;;;;;14.10;5.90;;;;;;;38.24;37.15;101164.41;4820418;29;20460;-84
2023/03/27 00:50:40;;;;;;;16.00;6.40;;;;;;;38.05;37.24;101145.53;4818489;29;20500;-81
2023/03/27 00:53:11;;;;;;;14.07;5.57;;;;;;;37.60;37.67;101131.69;4825357;29;20469;-83
2023/03/27 00:55:47;;;;;;;12.47;4.90;;;;;;;38.25;36.99;101182.28;4854074;29;20444;-83
2023/03/27 00:58:30;;;;;;;19.20;7.30;;;;;;;37.98;37.59;101147.03;4836387;29;20436;-84
2023/03/27 01:01:03;;;;;;;10.23;5.00;;;;;;;38.12;36.88;101137.00;4851819;29;20442;-84
2023/03/27 01:03:45;;;;;;;10.90;6.50;;;;;;;38.49;36.48;101173.16;4827317;29;20460;-87
2023/03/27 01:06:18;;;;;;;11.30;4.30;;;;;;;38.08;37.15;101128.69;4833426;29;20429;-86
2023/03/27 01:08:49;;;;;;;13.43;4.60;;;;;;;38.67;36.76;101167.63;4853550;29;20433;-85
2023/03/27 01:12:01;;;;;;;13.80;4.90;;;;;;;38.72;36.69;101172.16;4826488;29;20456;-85
2023/03/27 01:15:04;;;;;;;13.63;5.13;;;;;;;38.37;37.46;101160.13;4855750;29;20460;-84
2023/03/27 01:17:56;;;;;;;13.50;5.30;;;;;;;38.48;37.40;101142.53;4852396;29;20548;-84
2023/03/27 01:20:55;;;;;;;12.87;5.53;;;;;;;38.45;36.97;101099.78;4838836;29;20453;-84
2023/03/27 01:24:19;;;;;;;17.67;5.90;;;;;;;39.11;36.90;101152.56;4841539;29;20434;-84
2023/03/27 01:27:00;;;;;;;15.40;5.63;;;;;;;39.08;36.60;101133.38;4824258;29;20431;-84
2023/03/27 01:30:07;;;;;;;15.77;5.80;;;;;;;39.20;36.46;101123.59;4819616;29;20820;-85
2023/03/27 01:33:11;;;;;;;16.13;5.80;;;;;;;39.12;36.84;101105.31;4807010;29;20438;-86
2023/03/27 01:39:36;;;;;;;16.20;8.57;;;;;;;39.35;37.24;101079.00;4822546;29;20457;-74
2023/03/27 01:42:35;;;;;;;15.73;5.80;;;;;;;39.00;37.61;101022.91;4800307;29;20505;-85
2023/03/27 01:45:05;;;;;;;14.60;5.87;;;;;;;39.13;37.17;101006.53;4814756;29;20449;-84
2023/03/27 01:48:00;;;;;;;11.33;6.97;;;;;;;39.27;37.75;101028.19;4823070;29;20430;-82
2023/03/27 01:50:36;;;;;;;18.03;7.60;;;;;;;39.42;37.18;100978.13;4818225;29;20519;-85
2023/03/27 01:53:10;;;;;;;9.40;5.40;;;;;;;39.71;36.84;101007.47;4838994;29;20461;-79
2023/03/27 01:55:42;;;;;;;15.23;5.23;;;;;;;39.76;36.24;100975.53;4825802;29;20441;-82
2023/03/27 01:58:15;;;;;;;8.90;3.97;;;;;;;39.61;36.39;100969.75;4837099;29;20460;-84
2023/03/27 02:00:48;;;;;;;11.93;4.77;;;;;;;39.87;36.25;100970.63;4829883;29;20449;-83
2023/03/27 02:03:21;;;;;;;15.13;5.13;;;;;;;39.81;35.86;100966.44;4841686;29;20437;-84
2023/03/27 02:05:57;;;;;;;10.40;3.87;;;;;;;40.06;35.61;100973.06;4839989;29;20476;-84
2023/03/27 02:08:40;;;;;;;10.10;5.07;;;;;;;40.08;35.89;100980.88;4842761;29;20525;-85
2023/03/27 02:11:07;;;;;;;10.33;4.40;;;;;;;40.11;36.10;100981.06;4830545;29;20851;-85
2023/03/27 02:14:08;;;;;;;7.30;3.93;;;;;;;40.21;35.29;100986.19;4827089;29;20473;-84
2023/03/27 02:16:41;;;;;;;9.53;3.77;;;;;;;39.99;34.62;100930.03;4811063;29;20425;-85
2023/03/27 02:19:19;;;;;;;9.33;4.40;;;;;;;40.01;34.22;100937.88;4834138;29;20437;-88
2023/03/27 02:21:48;;;;;;;17.33;5.00;;;;;;;39.77;33.68;100919.31;4840481;29;20437;-89
2023/03/27 02:24:18;;;;;;;11.93;4.50;;;;;;;39.82;33.55;100910.22;4810643;29;20929;-83
2023/03/27 02:26:47;;;;;;;15.60;5.37;;;;;;;39.87;33.55;100920.94;4826482;29;20485;-79
2023/03/27 02:29:28;;;;;;;9.93;4.30;;;;;;;39.84;32.98;100927.81;4844516;29;20438;-79
2023/03/27 02:32:23;;;;;;;13.13;5.47;;;;;;;40.21;32.85;100964.47;4840717;29;20444;-85
2023/03/27 02:34:57;;;;;;;8.20;3.60;;;;;;;40.21;33.25;100955.50;4810308;29;20465;-84
2023/03/27 02:37:47;;;;;;;13.13;5.43;;;;;;;40.39;33.39;100957.09;4826961;29;20507;-85
2023/03/27 02:40:56;;;;;;;9.00;4.20;;;;;;;40.38;33.73;100965.56;4829917;29;20464;-81
2023/03/27 02:43:44;;;;;;;19.03;5.00;;;;;;;40.17;34.00;100936.31;4838745;29;20441;-82
2023/03/27 02:47:09;;;;;;;10.43;4.03;;;;;;;40.21;32.88;100931.84;4852327;29;20948;-80
2023/03/27 02:49:59;;;;;;;16.20;5.70;;;;;;;40.57;32.54;100973.41;4782384;30;20564;-83
2023/03/27 02:53:04;;;;;;;9.27;4.50;;;;;;;40.40;33.11;100944.31;4770756;30;20918;-83
2023/03/27 02:55:40;;;;;;;10.10;4.47;;;;;;;40.49;33.43;100945.91;4843760;29;20531;-83
2023/03/27 02:58:17;;;;;;;14.40;5.90;;;;;;;40.50;33.38;100943.97;4828949;29;20451;-85
2023/03/27 03:00:55;;;;;;;14.27;4.20;;;;;;;40.33;32.62;100911.34;4821324;29;20471;-84
2023/03/27 03:03:53;;;;;;;8.50;3.73;;;;;;;40.29;32.87;100920.16;4827820;29;20458;-83
2023/03/27 03:06:28;;;;;;;13.90;3.20;;;;;;;40.23;32.75;100902.41;4852381;29;21062;-84
2023/03/27 03:09:04;;;;;;;9.73;4.23;;;;;;;40.45;32.56;100920.44;4841343;29;20441;-84
2023/03/27 03:11:52;;;;;;;9.63;3.83;;;;;;;40.28;32.37;100904.97;4842678;29;20940;-81
2023/03/27 03:14:27;;;;;;;12.70;4.33;;;;;;;40.24;32.66;100895.84;4838408;29;20539;-76
2023/03/27 03:16:54;;;;;;;12.60;4.13;;;;;;;40.30;32.93;100912.81;4839653;29;20433;-84
2023/03/27 03:19:22;;;;;;;16.53;4.73;;;;;;;40.33;33.09;100922.22;4845253;29;21031;-84
2023/03/27 03:21:50;;;;;;;10.27;3.70;;;;;;;40.07;33.18;100898.59;4828766;29;20468;-85
2023/03/27 03:24:17;;;;;;;9.97;4.27;;;;;;;40.40;33.11;100928.00;4814807;29;20761;-86
2023/03/27 03:26:48;;;;;;;15.43;6.63;;;;;;;40.15;33.21;100899.72;4814747;29;20441;-84
2023/03/27 03:29:19;;;;;;;16.30;5.70;;;;;;;40.14;33.21;100898.91;4848668;29;20430;-79
2023/03/27 03:31:48;;;;;;;10.37;5.83;;;;;;;40.26;32.44;100914.56;4829563;29;20428;-84
2023/03/27 03:34:17;;;;;;;15.47;6.07;;;;;;;40.29;33.09;100890.25;4843495;29;20461;-85
2023/03/27 03:36:47;;;;;;;14.33;6.07;;;;;;;40.38;33.16;100911.97;4843586;29;20422;-84
2023/03/27 03:39:15;;;;;;;12.57;5.20;;;;;;;40.38;33.60;100913.91;4815343;29;20429;-86
2023/03/27 03:41:43;;;;;;;12.20;5.40;;;;;;;40.24;32.85;100892.34;4813640;29;20461;-78
2023/03/27 03:44:09;;;;;;;18.10;6.33;;;;;;;40.44;32.51;100913.41;4843833;29;20512;-81
2023/03/27 03:46:36;;;;;;;18.27;5.40;;;;;;;40.36;33.10;100894.41;4826085;29;20453;-85
2023/03/27 03:49:10;;;;;;;19.90;6.20;;;;;;;40.18;32.78;100882.75;4841562;29;20815;-85
2023/03/27 03:51:37;;;;;;;15.60;5.60;;;;;;;40.19;32.01;100879.72;4845618;29;20435;-84
2023/03/27 03:54:05;;;;;;;15.50;6.40;;;;;;;40.39;32.23;100900.00;4815029;29;20504;-84
2023/03/27 03:56:42;;;;;;;17.70;6.07;;;;;;;40.27;31.59;100887.06;4821474;29;20442;-82
2023/03/27 03:59:17;;;;;;;11.10;5.60;;;;;;;40.09;31.92;100869.19;4838222;29;20435;-86
2023/03/27 04:01:48;;;;;;;12.97;6.47;;;;;;;40.13;31.39;100874.78;4830994;29;20437;-76
2023/03/27 04:04:21;;;;;;;18.57;6.83;;;;;;;40.20;31.33;100899.53;4841225;29;20445;-86
2023/03/27 04:06:57;;;;;;;15.63;6.67;;;;;;;40.33;31.85;100916.78;4829361;29;20437;-85
2023/03/27 04:09:28;;;;;;;12.50;6.07;;;;;;;40.26;31.94;100909.91;4843269;29;20437;-86
2023/03/27 04:12:05;;;;;;;21.80;8.30;;;;;;;40.28;31.88;100891.38;4836024;29;20519;-85
2023/03/27 04:14:33;;;;;;;15.63;6.83;;;;;;;40.28;31.31;100882.44;4844152;29;20892;-84
2023/03/27 04:17:00;;;;;;;13.70;5.63;;;;;;;40.14;31.90;100882.59;4827693;29;20815;-82
2023/03/27 04:19:28;;;;;;;19.23;5.63;;;;;;;40.22;31.61;100881.81;4830811;29;20857;-82
2023/03/27 04:22:07;;;;;;;17.20;6.97;;;;;;;40.18;31.16;100885.47;4831069;29;20428;-83
2023/03/27 04:24:43;;;;;;;18.53;6.20;;;;;;;40.16;31.78;100891.25;4832246;29;20960;-84
2023/03/27 04:27:12;;;;;;;10.70;6.13;;;;;;;40.05;31.93;100892.69;4811340;29;20815;-85
2023/03/27 04:29:42;;;;;;;14.67;7.43;;;;;;;40.00;32.23;100873.78;4844036;29;20446;-83
2023/03/27 04:32:11;;;;;;;19.43;5.87;;;;;;;40.00;32.45;100880.03;4811937;29;20433;-82
2023/03/27 04:34:39;;;;;;;13.33;4.60;;;;;;;40.34;32.24;100915.69;4811810;29;20469;-85
2023/03/27 04:37:05;;;;;;;17.57;6.77;;;;;;;40.22;32.54;100919.06;4826045;29;20442;-83
2023/03/27 04:39:38;;;;;;;17.93;6.80;;;;;;;40.23;32.08;100913.28;4825573;29;20512;-86
2023/03/27 04:42:05;;;;;;;16.37;6.63;;;;;;;39.96;32.12;100919.00;4811451;29;20490;-84
2023/03/27 04:44:33;;;;;;;12.93;7.00;;;;;;;39.96;32.12;100914.41;4810906;29;20432;-85
2023/03/27 04:47:01;;;;;;;15.37;6.70;;;;;;;40.08;31.54;100923.84;4841639;29;20429;-85
2023/03/27 04:49:28;;;;;;;12.67;5.00;;;;;;;40.17;31.85;100924.66;4836085;29;20485;-84
2023/03/27 04:51:54;;;;;;;19.60;6.80;;;;;;;39.91;31.82;100928.13;4811679;29;20438;-80
2023/03/27 04:54:22;;;;;;;17.23;6.80;;;;;;;39.79;31.58;100908.94;4826298;29;20462;-84
2023/03/27 04:56:49;;;;;;;14.83;7.20;;;;;;;40.10;31.94;100925.13;4842009;29;20969;-84
2023/03/27 04:59:17;;;;;;;17.30;5.13;;;;;;;39.96;31.46;100905.41;4834158;29;20455;-74
2023/03/27 05:02:06;;;;;;;11.80;5.87;;;;;;;40.04;31.78;100926.41;4829479;29;20429;-74
2023/03/27 05:04:34;;;;;;;14.00;8.03;;;;;;;40.01;32.18;100906.06;4828277;29;20437;-87
2023/03/27 05:07:01;;;;;;;29.50;7.33;;;;;;;39.94;31.92;100880.50;4841099;29;20520;-90
2023/03/27 05:09:27;;;;;;;18.53;6.17;;;;;;;40.17;31.79;100900.19;4817076;29;20426;-83
2023/03/27 05:11:53;;;;;;;21.63;7.30;;;;;;;40.15;31.83;100888.84;4814882;29;20445;-82
2023/03/27 05:14:22;;;;;;;15.33;7.57;;;;;;;40.18;31.97;100880.84;4811596;29;20465;-83
2023/03/27 05:16:49;;;;;;;19.70;6.70;;;;;;;40.07;32.29;100893.16;4846065;29;20507;-82
2023/03/27 05:19:18;;;;;;;20.43;6.97;;;;;;;39.75;32.31;100870.75;4829831;29;20448;-83
2023/03/27 05:21:48;;;;;;;11.87;5.90;;;;;;;39.93;32.33;100914.22;4826514;29;20507;-85
2023/03/27 05:24:18;;;;;;;15.10;7.17;;;;;;;39.70;32.28;100903.50;4835523;29;20465;-82
2023/03/27 05:26:48;;;;;;;14.40;9.00;;;;;;;39.27;33.40;100872.72;4827718;29;20468;-85
2023/03/27 05:29:15;;;;;;;21.43;6.73;;;;;;;39.60;33.33;100917.38;4844700;29;20505;-85
2023/03/27 05:31:41;;;;;;;20.57;6.70;;;;;;;39.51;32.97;100889.38;4812144;29;20430;-83
2023/03/27 05:34:10;;;;;;;16.53;6.80;;;;;;;39.55;33.37;100890.34;4828593;29;20470;-86
2023/03/27 05:36:39;;;;;;;21.83;7.60;;;;;;;39.56;33.06;100888.44;4797986;29;20437;-81
2023/03/27 05:39:05;;;;;;;12.40;6.00;;;;;;;39.44;32.82;100894.47;4796976;29;20469;-87
2023/03/27 05:41:31;;;;;;;14.80;6.47;;;;;;;39.70;32.52;100916.25;4808287;29;20456;-84
2023/03/27 05:43:57;;;;;;;17.87;6.13;;;;;;;39.77;31.85;100903.00;4838001;29;20428;-84
2023/03/27 05:46:23;;;;;;;18.60;6.93;;;;;;;39.87;31.14;100931.78;4837675;29;20433;-87
2023/03/27 05:48:49;;;;;;;22.07;9.07;;;;;;;39.54;32.29;100934.91;4815358;29;20428;-85
2023/03/27 05:51:16;;;;;;;16.17;6.43;;;;;;;39.50;31.93;100932.00;4839976;29;20473;-84
2023/03/27 05:53:42;;;;;;;13.47;7.27;;;;;;;39.73;31.94;100937.38;4807482;29;20457;-82
2023/03/27 05:56:09;;;;;;;22.20;6.37;;;;;;;39.52;31.33;100926.25;4806907;29;20464;-82
2023/03/27 05:58:35;;;;;;;13.27;6.07;;;;;;;39.67;32.05;100939.44;4840400;29;20433;-84
2023/03/27 06:01:33;;;;;;;18.60;7.00;;;;;;;39.73;32.22;100942.81;4815096;29;20880;-85
2023/03/27 06:04:03;;;;;;;13.30;6.03;;;;;;;39.53;32.75;100933.28;4820129;29;20440;-83
2023/03/27 06:06:47;;;;;;;18.77;6.03;;;;;;;39.54;32.42;100943.06;4823065;29;20449;-84
2023/03/27 06:09:13;;;;;;;13.90;6.07;;;;;;;39.22;32.48;100944.19;4827913;29;20493;-84
2023/03/27 06:11:41;;;;;;;15.10;6.50;;;;;;;39.05;32.30;100942.19;4823687;29;20664;-83
2023/03/27 06:14:09;;;;;;;12.83;7.07;;;;;;;38.98;32.59;100933.72;4811383;29;20456;-84
2023/03/27 06:16:35;;;;;;;13.23;6.77;;;;;;;39.21;33.04;100962.38;4814158;29;20430;-83
2023/03/27 06:19:01;;;;;;;23.17;7.20;;;;;;;39.14;33.76;100963.94;4825081;29;20437;-84
2023/03/27 06:21:27;;;;;;;13.83;5.30;;;;;;;39.00;33.65;100966.75;4807479;29;20437;-83
2023/03/27 06:23:55;;;;;;;15.10;5.90;;;;;;;38.81;34.37;100958.81;4822155;29;20453;-83
2023/03/27 06:26:21;;;;;;;12.67;6.67;;;;;;;39.15;35.04;100971.75;4824849;29;21016;-84
2023/03/27 06:28:47;;;;;;;12.77;5.40;;;;;;;39.05;35.01;100977.47;4836669;29;20460;-76
2023/03/27 06:31:13;;;;;;;11.50;5.87;;;;;;;39.25;35.16;100972.63;4818848;29;20422;-79
2023/03/27 06:33:39;;;;;;;12.80;5.30;;;;;;;39.08;35.53;100981.47;4815499;29;20473;-83
2023/03/27 06:36:06;;;;;;;18.23;4.73;;;;;;;39.16;36.00;100983.44;4836594;29;20445;-82
2023/03/27 06:38:32;;;;;;;15.33;5.50;;;;;;;39.09;35.69;101000.13;4825476;29;20447;-82
2023/03/27 06:40:58;;;;;;;16.30;6.80;;;;;;;39.33;34.84;101002.50;4834268;29;20433;-82
2023/03/27 06:43:25;;;;;;;15.00;6.17;;;;;;;39.27;34.89;101001.06;4834769;29;20466;-83
2023/03/27 06:45:51;;;;;;;19.80;6.70;;;;;;;39.26;35.34;101007.59;4798180;29;20430;-82
2023/03/27 06:48:19;;;;;;;18.30;8.83;;;;;;;39.25;34.47;100997.06;4836812;29;20436;-83
2023/03/27 06:50:47;;;;;;;15.03;7.00;;;;;;;39.62;33.90;101004.75;4804319;29;20485;-81
2023/03/27 06:53:16;;;;;;;21.80;6.40;;;;;;;39.74;33.84;101015.81;4822475;29;20988;-82
2023/03/27 06:55:43;;;;;;;18.13;6.00;;;;;;;39.79;34.00;101017.56;4824982;29;20442;-81
2023/03/27 06:58:13;;;;;;;17.37;5.80;;;;;;;39.61;34.08;101035.72;4810141;29;20453;-81
2023/03/27 07:00:40;;;;;;;13.97;5.47;;;;;;;39.10;34.40;101052.47;4826962;29;20431;-81
2023/03/27 07:03:08;;;;;;;16.00;6.47;;;;;;;39.34;34.10;101041.31;4808734;29;20457;-81
2023/03/27 07:05:37;;;;;;;11.87;5.43;;;;;;;39.46;34.41;101057.81;4826227;29;20458;-81
2023/03/27 07:08:05;;;;;;;12.40;6.83;;;;;;;39.49;34.09;101065.34;4808990;29;20468;-81
2023/03/27 07:10:32;;;;;;;14.37;6.13;;;;;;;39.60;33.58;101066.72;4841842;29;20445;-81
2023/03/27 07:12:58;;;;;;;14.67;7.90;;;;;;;39.81;33.04;101068.84;4808609;29;20453;-81
2023/03/27 07:15:25;;;;;;;13.00;6.63;;;;;;;39.63;33.13;101079.66;4839044;29;21042;-82
2023/03/27 07:18:01;;;;;;;17.60;8.07;;;;;;;39.81;33.03;101077.00;4815611;29;20432;-82
2023/03/27 07:20:29;;;;;;;16.00;7.37;;;;;;;39.96;32.74;101071.13;4823233;29;20465;-83
2023/03/27 07:22:57;;;;;;;14.13;7.03;;;;;;;40.01;32.42;101077.22;4808611;29;20516;-81
2023/03/27 07:25:35;;;;;;;15.90;5.63;;;;;;;40.07;32.90;101077.09;4838594;29;20425;-81
2023/03/27 07:28:08;;;;;;;14.60;6.00;;;;;;;40.06;32.46;101080.94;4824884;29;20541;-82
2023/03/27 07:30:35;;;;;;;16.80;5.90;;;;;;;40.11;31.88;101078.88;4836628;29;20469;-81
2023/03/27 07:33:04;;;;;;;17.13;5.50;;;;;;;40.28;32.04;101084.34;4808487;29;20961;-83
2023/03/27 07:35:30;;;;;;;14.67;5.20;;;;;;;40.31;32.63;101088.34;4838682;29;20477;-81
2023/03/27 07:37:56;;;;;;;14.77;5.37;;;;;;;40.41;32.29;101077.19;4838474;29;20499;-81
2023/03/27 07:40:22;;;;;;;11.27;5.20;;;;;;;40.51;32.31;101076.06;4821347;29;20972;-82
2023/03/27 07:42:50;;;;;;;17.83;7.43;;;;;;;40.62;31.99;101095.59;4841299;29;20457;-82
2023/03/27 07:45:17;;;;;;;12.43;5.50;;;;;;;40.64;32.10;101094.19;4808333;29;20437;-81
2023/03/27 07:47:45;;;;;;;13.30;6.03;;;;;;;40.72;32.49;101098.81;4807909;29;20425;-82
2023/03/27 07:50:13;;;;;;;16.20;7.37;;;;;;;40.71;32.70;101102.66;4813774;29;20477;-81
2023/03/27 07:52:42;;;;;;;23.20;9.30;;;;;;;40.84;32.37;101102.81;4807727;29;20426;-81
2023/03/27 07:55:11;;;;;;;20.47;15.30;;;;;;;40.72;32.89;101108.91;4807775;29;20504;-83
2023/03/27 07:57:57;;;;;;;20.27;12.87;;;;;;;40.68;33.19;101102.50;4825290;29;20425;-87
2023/03/27 08:00:23;;;;;;;18.87;12.70;;;;;;;40.60;32.70;101104.09;4830527;29;20406;-84
2023/03/27 08:02:49;;;;;;;17.90;10.50;;;;;;;40.49;33.25;101102.78;4839145;29;20444;-85
2023/03/27 08:05:16;;;;;;;28.47;13.60;;;;;;;40.69;33.09;101120.41;4809328;29;20429;-83
2023/03/27 08:07:47;;;;;;;24.70;14.13;;;;;;;40.63;33.42;101108.88;4809389;29;20806;-83
2023/03/27 08:10:14;;;;;;;18.43;14.10;;;;;;;40.51;34.00;101108.69;4812888;29;20425;-84
2023/03/27 08:12:41;;;;;;;19.03;11.47;;;;;;;40.62;33.74;101123.59;4809154;29;20429;-85
2023/03/27 08:15:13;;;;;;;27.83;13.40;;;;;;;40.65;34.07;101124.91;4824814;29;20488;-86
2023/03/27 08:17:39;;;;;;;13.60;8.93;;;;;;;40.67;33.67;101134.31;4827327;29;20433;-84
2023/03/27 08:20:08;;;;;;;13.97;9.03;;;;;;;40.61;33.60;101122.00;4824651;29;20450;-85
2023/03/27 08:22:37;;;;;;;17.50;9.23;;;;;;;40.68;34.05;101132.41;4808379;29;20445;-84
2023/03/27 08:25:09;;;;;;;13.90;9.00;;;;;;;40.60;33.81;101122.31;4835909;29;20442;-86
2023/03/27 08:28:02;;;;;;;16.47;8.77;;;;;;;40.68;33.71;101137.84;4823006;29;20474;-84
2023/03/27 08:30:29;;;;;;;21.20;8.70;;;;;;;40.72;33.46;101142.34;4834228;29;20422;-83
2023/03/27 08:32:59;;;;;;;21.00;10.70;;;;;;;40.73;33.37;101143.13;4851909;29;20832;-91
2023/03/27 08:35:25;;;;;;;14.43;10.07;;;;;;;40.70;33.59;101127.44;4798795;29;21028;-91
2023/03/27 08:37:52;;;;;;;26.83;12.57;;;;;;;40.66;33.81;101116.41;4807952;29;20438;-88
2023/03/27 08:40:24;;;;;;;20.70;12.73;;;;;;;40.63;34.56;101138.00;4831481;29;20520;-87
2023/03/27 08:42:57;;;;;;;22.90;10.93;;;;;;;40.54;34.61;101133.34;4837986;29;20447;-87
2023/03/27 08:45:28;;;;;;;16.77;10.00;;;;;;;40.45;33.85;101099.88;4807690;29;20421;-84
2023/03/27 08:48:06;;;;;;;16.27;10.57;;;;;;;40.62;34.22;101136.41;4825943;29;21000;-88
2023/03/27 08:50:42;;;;;;;19.50;9.07;;;;;;;40.68;33.25;101135.91;4809745;29;20553;-90
2023/03/27 08:53:34;;;;;;;20.70;11.23;;;;;;;40.89;33.03;101129.88;4838098;29;21011;-89
2023/03/27 08:56:01;;;;;;;21.23;11.67;;;;;;;40.92;33.32;101130.03;4837566;29;21014;-91
2023/03/27 08:58:29;;;;;;;16.20;12.50;;;;;;;41.00;33.05;101134.66;4808289;29;20952;-88
2023/03/27 09:01:26;;;;;;;19.00;12.50;;;;;;;41.10;32.87;101135.47;4807958;29;20444;-87
2023/03/27 09:04:42;;;;;;;17.73;12.40;;;;;;;41.12;33.26;101149.53;4808584;29;21025;-91
2023/03/27 09:07:48;;;;;;;20.23;11.60;;;;;;;41.06;33.14;101149.69;4839006;29;20440;-88
2023/03/27 09:10:45;;;;;;;16.10;11.80;;;;;;;41.14;32.53;101125.56;4807696;29;21015;-89
2023/03/27 09:13:30;;;;;;;19.73;11.10;;;;;;;40.96;33.07;101141.09;4809001;29;20530;-88
2023/03/27 09:16:03;;;;;;;17.10;12.33;;;;;;;41.09;32.33;101134.69;4837754;29;20510;-89
2023/03/27 09:18:32;;;;;;;24.60;13.33;;;;;;;41.16;32.50;101143.16;4825082;29;20429;-89
2023/03/27 09:21:22;;;;;;;24.67;13.90;;;;;;;41.22;32.35;101141.84;4807844;29;20437;-90
2023/03/27 09:23:54;;;;;;;29.67;13.47;;;;;;;41.25;32.28;101149.41;4840462;29;20429;-88
2023/03/27 09:26:29;;;;;;;19.90;13.67;;;;;;;41.35;32.71;101153.72;4807721;29;20433;-88
2023/03/27 09:29:00;;;;;;;24.63;15.87;;;;;;;41.38;33.23;101152.28;4816838;29;20976;-89
2023/03/27 09:31:55;;;;;;;30.67;18.80;;;;;;;41.38;32.65;101144.91;4807543;29;20430;-88
2023/03/27 09:34:31;;;;;;;23.13;12.73;;;;;;;41.34;33.19;101135.78;4815019;29;20479;-85
2023/03/27 09:37:01;;;;;;;16.20;8.77;;;;;;;41.27;33.77;101136.25;4837396;29;20488;-83
2023/03/27 09:39:31;;;;;;;15.73;7.07;;;;;;;41.16;33.47;101145.06;4829340;29;20964;-86
2023/03/27 09:42:09;;;;;;;18.90;7.17;;;;;;;41.00;34.09;101142.03;4807016;29;20526;-83
2023/03/27 09:44:40;;;;;;;10.60;5.93;;;;;;;41.21;33.99;101142.19;4821988;29;20521;-86
2023/03/27 09:47:14;;;;;;;16.37;6.00;;;;;;;41.18;34.11;101130.00;4837807;29;20866;-85
2023/03/27 09:49:46;;;;;;;10.80;5.13;;;;;;;41.28;34.76;101123.44;4822660;29;21061;-86
2023/03/27 09:52:32;;;;;;;12.50;5.03;;;;;;;41.40;34.12;101129.03;4806401;29;20441;-86
2023/03/27 09:54:58;;;;;;;10.20;5.30;;;;;;;41.41;34.38;101117.03;4831319;29;20474;-88
2023/03/27 09:57:32;;;;;;;10.90;4.67;;;;;;;41.50;34.65;101125.97;4826489;29;20568;-87
2023/03/27 10:00:08;;;;;;;8.33;4.07;;;;;;;41.61;34.14;101124.47;4806905;29;20964;-86
2023/03/27 10:02:36;;;;;;;10.60;5.97;;;;;;;41.71;34.24;101125.25;4829438;29;20449;-87
2023/03/27 10:05:11;;;;;;;14.50;5.30;;;;;;;41.71;33.97;101123.34;4807015;29;20815;-88
2023/03/27 10:07:40;;;;;;;9.80;4.00;;;;;;;41.56;34.54;101126.63;4835520;29;20437;-86
2023/03/27 10:10:10;;;;;;;11.07;4.10;;;;;;;41.65;34.29;101113.75;4806521;29;20452;-86
2023/03/27 10:12:37;;;;;;;10.17;4.03;;;;;;;41.78;34.13;101106.50;4835212;29;20437;-85
2023/03/27 10:15:06;;;;;;;11.53;4.37;;;;;;;41.81;34.44;101119.50;4836865;29;20522;-86
2023/03/27 10:17:38;;;;;;;13.27;5.03;;;;;;;41.84;34.54;101116.91;4811015;29;20428;-85
2023/03/27 10:20:12;;;;;;;12.00;5.63;;;;;;;41.94;34.38;101109.50;4811527;29;20468;-86
2023/03/27 10:22:41;;;;;;;12.63;4.53;;;;;;;41.84;34.48;101103.28;4826784;29;20915;-85
2023/03/27 10:25:19;;;;;;;10.30;4.33;;;;;;;41.84;34.39;101092.38;4806573;29;20421;-86
2023/03/27 10:27:46;;;;;;;11.83;6.20;;;;;;;41.86;34.08;101101.00;4846273;29;20451;-86
2023/03/27 10:30:39;;;;;;;13.40;4.63;;;;;;;41.88;33.93;101110.81;4839159;29;20445;-87
2023/03/27 10:33:06;;;;;;;12.70;4.70;;;;;;;41.89;34.03;101107.75;4821583;29;20433;-87
2023/03/27 10:35:38;;;;;;;11.97;4.27;;;;;;;41.92;34.21;101111.72;4810119;29;20568;-85
2023/03/27 10:38:17;;;;;;;10.27;5.87;;;;;;;41.94;33.57;101104.03;4842600;29;20527;-88
2023/03/27 10:40:48;;;;;;;14.70;4.20;;;;;;;41.96;33.67;101109.97;4840838;29;20435;-87
2023/03/27 10:43:38;;;;;;;11.70;4.30;;;;;;;41.98;34.20;101107.69;4825702;29;20457;-88
2023/03/27 10:46:12;;;;;;;9.07;4.27;;;;;;;42.06;34.09;101112.31;4824709;29;21020;-86
2023/03/27 10:48:50;;;;;;;9.97;4.30;;;;;;;42.10;33.89;101107.78;4809501;29;20483;-87
2023/03/27 10:51:34;;;;;;;13.40;4.70;;;;;;;42.11;34.07;101112.09;4839676;29;20468;-86
2023/03/27 10:54:10;;;;;;;8.57;4.13;;;;;;;42.16;34.06;101106.50;4810436;29;20472;-87
2023/03/27 10:56:50;;;;;;;11.60;4.20;;;;;;;42.20;33.94;101104.72;4809662;29;20497;-86
2023/03/27 10:59:25;;;;;;;11.10;3.73;;;;;;;42.20;33.36;101091.09;4840547;29;21045;-86
2023/03/27 11:01:57;;;;;;;11.20;4.53;;;;;;;42.21;33.97;101091.88;4809240;29;20433;-86
2023/03/27 11:04:35;;;;;;;10.63;4.50;;;;;;;42.24;33.63;101092.03;4832345;29;20523;-85
2023/03/27 11:07:05;;;;;;;13.43;4.40;;;;;;;42.22;33.47;101090.75;4839728;29;20433;-87
2023/03/27 11:09:36;;;;;;;10.07;3.97;;;;;;;42.16;32.76;101083.88;4831433;29;20464;-87
2023/03/27 11:12:15;;;;;;;13.30;5.27;;;;;;;42.16;32.99;101092.03;4805279;29;20497;-87
2023/03/27 11:14:44;;;;;;;10.27;3.90;;;;;;;42.20;33.44;101093.00;4810298;29;20473;-87
2023/03/27 11:17:15;;;;;;;12.40;4.40;;;;;;;42.11;32.81;101091.13;4840404;29;20446;-85
2023/03/27 11:19:48;;;;;;;9.30;3.90;;;;;;;42.11;32.99;101090.28;4823557;29;20437;-89
2023/03/27 11:22:39;;;;;;;9.80;4.10;;;;;;;42.03;33.13;101086.50;4843030;29;20971;-85
2023/03/27 11:25:28;;;;;;;13.30;4.20;;;;;;;42.13;32.97;101093.50;4835831;29;20482;-86
2023/03/27 11:28:22;;;;;;;10.37;4.30;;;;;;;42.08;33.06;101080.06;4815299;29;21006;-85
2023/03/27 11:31:05;;;;;;;8.20;3.80;;;;;;;42.07;32.79;101087.44;4840121;29;20521;-85
2023/03/27 11:33:55;;;;;;;11.60;4.07;;;;;;;42.08;33.15;101080.88;4809226;29;20448;-86
2023/03/27 11:36:36;;;;;;;9.93;4.00;;;;;;;42.07;32.79;101070.31;4809127;29;20490;-87
2023/03/27 11:39:21;;;;;;;9.50;4.70;;;;;;;42.07;33.08;101075.75;4842804;29;20499;-89
2023/03/27 11:41:54;;;;;;;9.57;3.50;;;;;;;42.01;32.98;101061.50;4838535;29;20470;-86
2023/03/27 11:44:21;;;;;;;11.77;4.80;;;;;;;42.00;33.20;101065.38;4839071;29;20433;-85
2023/03/27 11:47:02;;;;;;;13.43;4.17;;;;;;;41.86;33.35;101053.91;4838193;29;20472;-88
2023/03/27 11:50:06;;;;;;;11.00;4.73;;;;;;;41.88;33.26;101048.13;4827296;29;20496;-86
2023/03/27 11:52:45;;;;;;;11.83;6.50;;;;;;;41.92;33.40;101049.06;4815691;29;20460;-86
2023/03/27 11:55:37;;;;;;;17.20;4.47;;;;;;;41.84;32.92;101045.25;4839231;29;20473;-85